createdAt,value
2023-03-02T00:01:33.890Z,16.50
2023-03-02T00:04:02.488Z,15.63
2023-03-02T00:06:31.481Z,17.20
2023-03-02T00:09:02.729Z,16.25
2023-03-02T00:11:31.638Z,17.42
2023-03-02T00:13:58.244Z,16.95
2023-03-02T00:16:25.396Z,16.40
2023-03-02T00:18:51.863Z,16.10
2023-03-02T00:21:18.405Z,17.05
2023-03-02T00:23:45.000Z,17.13
2023-03-02T00:26:11.589Z,17.33
2023-03-02T00:28:38.086Z,18.00
2023-03-02T00:31:05.553Z,16.73
2023-03-02T00:33:33.347Z,17.27
2023-03-02T00:35:59.920Z,17.95
2023-03-02T00:38:27.653Z,19.00
2023-03-02T00:40:55.455Z,16.75
2023-03-02T00:43:27.392Z,17.67
2023-03-02T00:45:55.252Z,16.67
2023-03-02T00:48:21.986Z,16.42
2023-03-02T00:50:48.495Z,16.95
2023-03-02T00:53:15.010Z,16.58
2023-03-02T00:55:41.412Z,17.60
2023-03-02T00:58:07.941Z,18.65
2023-03-02T01:00:35.586Z,17.40
2023-03-02T01:03:02.210Z,19.30
2023-03-02T01:05:28.881Z,19.38
2023-03-02T01:07:55.368Z,20.23
2023-03-02T01:10:21.831Z,19.10
2023-03-02T01:12:48.316Z,20.48
2023-03-02T01:15:14.935Z,20.48
2023-03-02T01:17:42.869Z,20.30
2023-03-02T01:20:10.895Z,20.48
2023-03-02T01:22:37.493Z,20.20
2023-03-02T01:25:04.593Z,23.13
2023-03-02T01:27:31.101Z,22.15
2023-03-02T01:29:57.512Z,22.02
2023-03-02T01:32:24.098Z,21.95
2023-03-02T01:34:50.741Z,20.02
2023-03-02T01:37:17.229Z,19.67
2023-03-02T01:39:43.687Z,20.15
2023-03-02T01:42:10.122Z,19.67
2023-03-02T01:44:48.957Z,18.85
2023-03-02T01:47:23.442Z,18.13
2023-03-02T01:49:58.882Z,19.45
2023-03-02T01:52:26.838Z,20.13
2023-03-02T01:54:58.497Z,19.95
2023-03-02T01:57:32.899Z,19.40
2023-03-02T02:00:08.626Z,17.60
2023-03-02T02:02:36.331Z,17.92
2023-03-02T02:05:03.804Z,18.40
2023-03-02T02:07:30.546Z,17.75
2023-03-02T02:09:57.360Z,17.17
2023-03-02T02:12:24.166Z,17.55
2023-03-02T02:14:51.285Z,17.67
2023-03-02T02:17:18.993Z,17.55
2023-03-02T02:19:51.357Z,18.05
2023-03-02T02:22:44.927Z,12.18
2023-03-02T02:25:33.801Z,15.75
2023-03-02T02:28:02.539Z,16.83
2023-03-02T02:30:29.640Z,16.50
2023-03-02T02:32:58.453Z,17.45
2023-03-02T02:35:28.372Z,19.98
2023-03-02T02:38:02.324Z,18.13
2023-03-02T02:40:58.606Z,16.10
2023-03-02T02:43:27.684Z,14.70
2023-03-02T02:45:57.849Z,16.13
2023-03-02T02:48:27.126Z,14.68
2023-03-02T02:53:33.077Z,16.08
2023-03-02T02:56:00.694Z,15.88
2023-03-02T02:58:40.225Z,16.30
2023-03-02T03:01:07.916Z,14.43
2023-03-02T03:03:37.597Z,14.52
2023-03-02T03:06:08.901Z,16.75
2023-03-02T03:08:41.334Z,13.93
2023-03-02T03:11:09.675Z,12.90
2023-03-02T03:13:37.686Z,13.20
2023-03-02T03:16:07.758Z,13.95
2023-03-02T03:18:34.220Z,13.48
2023-03-02T03:21:00.787Z,13.98
2023-03-02T03:23:27.316Z,13.60
2023-03-02T03:25:53.812Z,13.63
2023-03-02T03:28:20.316Z,12.80
2023-03-02T03:30:47.062Z,13.27
2023-03-02T03:33:13.627Z,13.73
2023-03-02T03:35:40.230Z,12.80
2023-03-02T03:38:07.773Z,12.65
2023-03-02T03:40:34.575Z,13.20
2023-03-02T03:43:02.357Z,13.57
2023-03-02T03:45:30.513Z,12.93
2023-03-02T03:47:57.606Z,13.15
2023-03-02T03:50:24.752Z,12.88
2023-03-02T03:52:51.492Z,13.50
2023-03-02T03:55:18.225Z,13.98
2023-03-02T03:57:45.128Z,15.40
2023-03-02T04:00:17.726Z,13.80
2023-03-02T04:02:44.269Z,13.35
2023-03-02T04:05:11.348Z,14.05
2023-03-02T04:07:39.057Z,15.02
2023-03-02T04:10:07.345Z,14.88
2023-03-02T04:12:36.284Z,13.63
2023-03-02T04:15:04.068Z,14.90
2023-03-02T04:17:30.631Z,14.52
2023-03-02T04:19:57.305Z,14.65
2023-03-02T04:22:23.752Z,14.40
2023-03-02T04:24:50.470Z,13.88
2023-03-02T04:27:17.318Z,14.70
2023-03-02T04:29:45.420Z,14.57
2023-03-02T04:32:14.787Z,14.75
2023-03-02T04:34:41.654Z,13.65
2023-03-02T04:37:08.135Z,15.32
2023-03-02T04:39:34.592Z,15.60
2023-03-02T04:42:01.006Z,15.82
2023-03-02T04:44:27.667Z,15.70
2023-03-02T04:46:54.296Z,15.65
2023-03-02T04:49:20.893Z,14.93
2023-03-02T04:51:49.514Z,15.20
2023-03-02T04:54:21.787Z,14.50
2023-03-02T04:56:48.718Z,15.43
2023-03-02T04:59:16.712Z,16.08
2023-03-02T05:01:44.540Z,15.73
2023-03-02T05:04:11.572Z,15.68
2023-03-02T05:06:38.439Z,15.18
2023-03-02T05:09:05.606Z,15.45
2023-03-02T05:11:32.521Z,14.25
2023-03-02T05:14:02.168Z,15.73
2023-03-02T05:16:32.886Z,16.77
2023-03-02T05:19:01.573Z,16.65
2023-03-02T05:21:28.295Z,18.40
2023-03-02T05:23:54.913Z,18.08
2023-03-02T05:26:21.387Z,16.05
2023-03-02T05:28:48.016Z,15.32
2023-03-02T05:31:29.976Z,16.95
2023-03-02T05:33:57.065Z,14.38
2023-03-02T05:36:23.750Z,16.35
2023-03-02T05:38:50.306Z,16.15
2023-03-02T05:41:17.151Z,14.90
2023-03-02T05:43:44.078Z,15.02
2023-03-02T05:46:10.702Z,14.80
2023-03-02T05:48:37.166Z,15.30
2023-03-02T05:51:04.250Z,15.40
2023-03-02T05:53:30.755Z,15.50
2023-03-02T05:55:57.307Z,15.85
2023-03-02T05:58:23.830Z,15.75
2023-03-02T06:00:50.334Z,15.25
2023-03-02T06:03:17.079Z,15.30
2023-03-02T06:05:43.813Z,14.18
2023-03-02T06:08:10.841Z,14.27
2023-03-02T06:10:38.200Z,15.15
2023-03-02T06:13:04.686Z,13.88
2023-03-02T06:15:31.189Z,17.20
2023-03-02T06:17:57.779Z,15.07
2023-03-02T06:20:24.565Z,14.65
2023-03-02T06:22:51.408Z,14.10
2023-03-02T06:25:23.469Z,14.10
2023-03-02T06:27:53.976Z,14.07
2023-03-02T06:30:25.388Z,13.93
2023-03-02T06:32:52.149Z,14.93
2023-03-02T06:35:19.062Z,13.80
2023-03-02T06:37:45.730Z,15.88
2023-03-02T06:40:13.933Z,16.70
2023-03-02T06:42:42.029Z,16.92
2023-03-02T06:45:10.295Z,15.70
2023-03-02T06:47:36.827Z,15.63
2023-03-02T06:50:03.917Z,16.90
2023-03-02T06:52:30.558Z,15.07
2023-03-02T06:54:57.070Z,15.90
2023-03-02T06:57:23.670Z,16.73
2023-03-02T06:59:50.145Z,16.80
2023-03-02T07:02:16.606Z,18.00
2023-03-02T07:04:43.116Z,17.40
2023-03-02T07:07:09.675Z,15.55
2023-03-02T07:09:36.167Z,15.90
2023-03-02T07:12:02.736Z,15.15
2023-03-02T07:14:29.376Z,15.50
2023-03-02T07:16:57.494Z,16.23
2023-03-02T07:19:24.332Z,15.15
2023-03-02T07:21:50.852Z,15.45
2023-03-02T07:24:17.417Z,17.25
2023-03-02T07:26:43.910Z,15.90
2023-03-02T07:29:10.356Z,15.40
2023-03-02T07:31:36.824Z,16.23
2023-03-02T07:34:03.392Z,15.32
2023-03-02T07:36:30.072Z,15.73
2023-03-02T07:38:56.544Z,16.35
2023-03-02T07:41:23.138Z,16.50
2023-03-02T07:43:49.601Z,16.27
2023-03-02T07:46:16.474Z,17.10
2023-03-02T07:48:42.965Z,16.23
2023-03-02T07:51:09.417Z,15.68
2023-03-02T07:53:35.987Z,18.35
2023-03-02T07:56:07.136Z,15.30
2023-03-02T07:58:35.270Z,17.58
2023-03-02T08:01:01.947Z,15.07
2023-03-02T08:03:28.560Z,15.43
2023-03-02T08:05:55.130Z,14.77
2023-03-02T08:08:21.743Z,15.50
2023-03-02T08:10:48.240Z,16.60
2023-03-02T08:13:14.756Z,15.45
2023-03-02T08:15:41.224Z,16.30
2023-03-02T08:18:07.763Z,15.40
2023-03-02T08:20:34.289Z,16.25
2023-03-02T08:23:00.792Z,15.82
2023-03-02T08:25:27.362Z,15.68
2023-03-02T08:27:53.888Z,17.83
2023-03-02T08:30:20.544Z,18.05
2023-03-02T08:32:47.118Z,18.77
2023-03-02T08:35:13.580Z,17.05
2023-03-02T08:37:40.043Z,16.10
2023-03-02T08:40:07.276Z,16.23
2023-03-02T08:42:33.843Z,16.60
2023-03-02T08:45:00.363Z,15.85
2023-03-02T08:47:26.914Z,15.55
2023-03-02T08:52:34.777Z,15.43
2023-03-02T08:55:03.644Z,17.00
2023-03-02T08:57:30.466Z,15.65
2023-03-02T08:59:57.008Z,15.60
2023-03-02T09:02:23.577Z,16.25
2023-03-02T09:04:50.131Z,17.00
2023-03-02T09:07:17.423Z,15.50
2023-03-02T09:09:44.116Z,15.48
2023-03-02T09:12:10.763Z,17.02
2023-03-02T09:14:37.296Z,16.55
2023-03-02T09:17:04.130Z,16.25
2023-03-02T09:19:30.676Z,16.30
2023-03-02T09:21:57.131Z,16.63
2023-03-02T09:24:23.686Z,16.52
2023-03-02T09:26:50.528Z,16.27
2023-03-02T09:29:16.976Z,16.67
2023-03-02T09:31:43.451Z,15.05
2023-03-02T09:34:09.917Z,15.63
2023-03-02T09:36:36.552Z,16.13
2023-03-02T09:39:08.526Z,16.08
2023-03-02T09:42:07.854Z,15.60
2023-03-02T09:45:00.006Z,15.52
2023-03-02T09:47:52.809Z,15.32
2023-03-02T09:50:35.226Z,16.33
2023-03-02T09:53:39.377Z,17.08
2023-03-02T09:56:14.594Z,17.48
2023-03-02T09:58:42.926Z,16.70
2023-03-02T10:01:21.757Z,16.23
2023-03-02T10:03:56.398Z,14.98
2023-03-02T10:06:26.878Z,15.85
2023-03-02T10:08:53.408Z,16.02
2023-03-02T10:11:29.590Z,16.17
2023-03-02T10:14:04.555Z,15.70
2023-03-02T10:16:37.935Z,15.32
2023-03-02T10:19:26.022Z,14.63
2023-03-02T10:22:10.573Z,14.18
2023-03-02T10:24:48.240Z,14.10
2023-03-02T10:27:26.084Z,14.75
2023-03-02T10:30:10.912Z,15.10
2023-03-02T10:32:43.800Z,14.63
2023-03-02T10:35:23.146Z,15.50
2023-03-02T10:37:59.962Z,16.33
2023-03-02T10:40:45.316Z,16.52
2023-03-02T10:43:31.689Z,15.25
2023-03-02T10:46:03.194Z,14.68
2023-03-02T10:48:29.914Z,15.88
2023-03-02T10:50:58.502Z,15.25
2023-03-02T10:53:25.179Z,16.90
2023-03-02T10:55:53.541Z,16.45
2023-03-02T10:58:22.887Z,15.40
2023-03-02T11:01:04.477Z,15.15
2023-03-02T11:03:32.588Z,14.93
2023-03-02T11:06:18.172Z,15.80
2023-03-02T11:08:44.740Z,14.77
2023-03-02T11:11:22.440Z,15.02
2023-03-02T11:13:49.003Z,15.98
2023-03-02T11:16:18.277Z,15.25
2023-03-02T11:18:51.867Z,14.68
2023-03-02T11:21:28.712Z,15.00
2023-03-02T11:24:02.191Z,15.02
2023-03-02T11:26:44.381Z,14.75
2023-03-02T11:29:10.887Z,14.93
2023-03-02T11:31:45.866Z,14.88
2023-03-02T11:34:34.891Z,14.43
2023-03-02T11:37:15.524Z,14.30
2023-03-02T11:39:54.948Z,14.40
2023-03-02T11:42:27.955Z,13.32
2023-03-02T11:44:55.474Z,15.60
2023-03-02T11:47:23.086Z,15.27
2023-03-02T11:49:59.022Z,15.05
2023-03-02T11:52:30.123Z,14.70
2023-03-02T11:55:03.105Z,16.13
2023-03-02T12:00:00.568Z,13.82
2023-03-02T12:02:27.528Z,13.63
2023-03-02T12:05:23.466Z,13.93
2023-03-02T12:08:01.762Z,13.25
2023-03-02T12:10:36.441Z,14.82
2023-03-02T12:13:28.517Z,12.70
2023-03-02T12:15:58.646Z,13.00
2023-03-02T12:18:25.302Z,12.98
2023-03-02T12:21:13.789Z,12.48
2023-03-02T12:23:49.234Z,11.88
2023-03-02T12:26:21.491Z,11.85
2023-03-02T12:29:05.567Z,11.23
2023-03-02T12:31:42.993Z,11.70
2023-03-02T12:34:24.348Z,12.43
2023-03-02T12:36:54.592Z,11.88
2023-03-02T12:39:42.915Z,12.27
2023-03-02T12:42:30.574Z,11.85
2023-03-02T12:45:11.853Z,12.65
2023-03-02T12:47:44.506Z,12.32
2023-03-02T12:50:27.362Z,12.02
2023-03-02T12:53:02.849Z,11.77
2023-03-02T12:55:30.309Z,11.10
2023-03-02T12:58:01.088Z,10.75
2023-03-02T13:00:32.907Z,10.77
2023-03-02T13:03:02.119Z,11.05
2023-03-02T13:05:31.473Z,11.23
2023-03-02T13:08:01.842Z,11.23
2023-03-02T13:10:41.142Z,10.40
2023-03-02T13:13:39.311Z,10.68
2023-03-02T13:16:18.193Z,10.55
2023-03-02T13:18:45.806Z,10.30
2023-03-02T13:21:14.505Z,10.88
2023-03-02T13:23:50.276Z,10.23
2023-03-02T13:26:37.104Z,10.65
2023-03-02T13:29:07.258Z,10.07
2023-03-02T13:31:34.985Z,9.73
2023-03-02T13:34:01.772Z,9.68
2023-03-02T13:36:41.497Z,10.57
2023-03-02T13:39:19.776Z,10.23
2023-03-02T13:41:55.691Z,10.18
2023-03-02T13:44:28.072Z,10.23
2023-03-02T13:46:55.554Z,10.43
2023-03-02T13:49:32.877Z,9.88
2023-03-02T13:52:08.162Z,10.45
2023-03-02T13:54:37.046Z,9.90
2023-03-02T13:57:05.652Z,10.27
2023-03-02T13:59:36.431Z,10.73
2023-03-02T14:02:03.379Z,10.68
2023-03-02T14:04:29.923Z,10.65
2023-03-02T14:06:56.609Z,10.75
2023-03-02T14:09:23.292Z,9.68
2023-03-02T14:11:53.375Z,10.32
2023-03-02T14:14:23.383Z,9.88
2023-03-02T14:16:50.449Z,10.25
2023-03-02T14:19:18.370Z,9.65
2023-03-02T14:21:46.054Z,9.68
2023-03-02T14:24:12.792Z,9.43
2023-03-02T14:26:44.455Z,9.45
2023-03-02T14:29:19.765Z,9.05
2023-03-02T14:31:46.286Z,9.27
2023-03-02T14:34:14.184Z,9.20
2023-03-02T14:36:43.836Z,8.82
2023-03-02T14:39:35.661Z,9.15
2023-03-02T14:42:02.601Z,9.07
2023-03-02T14:44:29.188Z,9.20
2023-03-02T14:46:57.575Z,8.85
2023-03-02T14:49:25.137Z,8.45
2023-03-02T14:52:02.581Z,8.73
2023-03-02T14:54:38.297Z,9.15
2023-03-02T14:57:06.245Z,9.52
2023-03-02T14:59:32.668Z,8.55
2023-03-02T15:02:06.093Z,9.25
2023-03-02T15:04:36.929Z,8.85
2023-03-02T15:07:03.502Z,9.32
2023-03-02T15:09:29.895Z,9.00
2023-03-02T15:11:56.348Z,9.40
2023-03-02T15:14:22.791Z,9.00
2023-03-02T15:16:49.265Z,8.75
2023-03-02T15:19:15.692Z,9.35
2023-03-02T15:21:44.791Z,8.88
2023-03-02T15:24:11.842Z,8.77
2023-03-02T15:26:41.132Z,8.85
2023-03-02T15:29:08.394Z,10.15
2023-03-02T15:31:35.217Z,9.57
2023-03-02T15:34:01.939Z,10.10
2023-03-02T15:36:28.358Z,11.07
2023-03-02T15:38:55.112Z,11.15
2023-03-02T15:41:21.715Z,11.00
2023-03-02T15:43:52.460Z,12.10
2023-03-02T15:46:20.434Z,11.73
2023-03-02T15:48:46.913Z,11.18
2023-03-02T15:51:13.684Z,12.27
2023-03-02T15:53:40.211Z,11.68
2023-03-02T15:56:07.959Z,12.20
2023-03-02T15:58:35.704Z,13.25
2023-03-02T16:01:12.191Z,12.45
2023-03-02T16:03:38.642Z,12.38
2023-03-02T16:06:05.503Z,12.52
2023-03-02T16:08:31.834Z,12.80
2023-03-02T16:11:05.343Z,12.13
2023-03-02T16:13:32.210Z,13.07
2023-03-02T16:16:05.852Z,12.45
2023-03-02T16:18:32.924Z,13.07
2023-03-02T16:20:59.355Z,12.48
2023-03-02T16:23:25.767Z,13.10
2023-03-02T16:25:52.264Z,13.93
2023-03-02T16:28:19.528Z,13.68
2023-03-02T16:30:46.279Z,14.07
2023-03-02T16:33:16.980Z,14.80
2023-03-02T16:35:43.567Z,14.35
2023-03-02T16:38:10.363Z,14.77
2023-03-02T16:40:39.933Z,14.50
2023-03-02T16:43:08.802Z,15.02
2023-03-02T16:45:35.895Z,14.52
2023-03-02T16:48:03.513Z,14.73
2023-03-02T16:50:29.962Z,15.20
2023-03-02T16:52:58.111Z,14.60
2023-03-02T16:55:24.890Z,14.35
2023-03-02T16:57:51.255Z,13.88
2023-03-02T17:00:23.369Z,14.90
2023-03-02T17:03:00.923Z,14.90
2023-03-02T17:05:27.311Z,14.80
2023-03-02T17:07:54.938Z,15.85
2023-03-02T17:10:21.848Z,15.40
2023-03-02T17:12:48.241Z,16.00
2023-03-02T17:15:14.957Z,15.13
2023-03-02T17:17:41.404Z,17.23
2023-03-02T17:20:11.314Z,16.40
2023-03-02T17:22:38.150Z,15.32
2023-03-02T17:25:05.556Z,15.90
2023-03-02T17:27:32.022Z,16.30
2023-03-02T17:29:58.496Z,17.23
2023-03-02T17:32:25.003Z,15.45
2023-03-02T17:34:51.452Z,16.65
2023-03-02T17:37:17.879Z,16.63
2023-03-02T17:39:44.254Z,16.48
2023-03-02T17:42:10.739Z,17.13
2023-03-02T17:44:40.398Z,16.48
2023-03-02T17:47:08.235Z,17.13
2023-03-02T17:49:39.078Z,16.88
2023-03-02T17:52:05.864Z,18.23
2023-03-02T17:54:32.476Z,17.55
2023-03-02T17:56:58.892Z,17.95
2023-03-02T17:59:25.284Z,18.05
2023-03-02T18:01:51.657Z,18.63
2023-03-02T18:04:18.191Z,19.23
2023-03-02T18:06:44.682Z,19.88
2023-03-02T18:09:11.091Z,20.17
2023-03-02T18:11:37.548Z,18.65
2023-03-02T18:14:03.961Z,18.05
2023-03-02T18:16:30.769Z,18.75
2023-03-02T18:18:57.681Z,17.98
2023-03-02T18:21:24.256Z,19.60
2023-03-02T18:23:51.085Z,18.60
2023-03-02T18:26:17.628Z,17.05
2023-03-02T18:28:44.107Z,17.70
2023-03-02T18:31:13.441Z,16.95
2023-03-02T18:33:39.880Z,18.00
2023-03-02T18:36:06.601Z,17.55
2023-03-02T18:38:34.060Z,17.98
2023-03-02T18:41:03.084Z,18.13
2023-03-02T18:43:32.559Z,17.63
2023-03-02T18:45:58.970Z,19.75
2023-03-02T18:48:25.361Z,19.50
2023-03-02T18:50:51.793Z,20.55
2023-03-02T18:53:18.184Z,21.17
2023-03-02T18:55:44.521Z,22.05
2023-03-02T18:58:18.433Z,21.10
2023-03-02T19:00:46.128Z,20.17
2023-03-02T19:03:15.093Z,20.83
2023-03-02T19:05:42.260Z,21.27
2023-03-02T19:08:09.085Z,20.88
2023-03-02T19:10:36.581Z,21.88
2023-03-02T19:13:03.514Z,20.58
2023-03-02T19:15:32.891Z,18.52
2023-03-02T19:17:59.264Z,16.13
2023-03-02T19:20:27.155Z,17.10
2023-03-02T19:22:54.881Z,17.40
2023-03-02T19:25:21.833Z,17.65
2023-03-02T19:27:48.713Z,16.17
2023-03-02T19:30:19.956Z,17.70
2023-03-02T19:32:46.886Z,17.80
2023-03-02T19:35:17.748Z,18.65
2023-03-02T19:37:44.804Z,18.92
2023-03-02T19:40:13.343Z,18.40
2023-03-02T19:42:45.071Z,19.90
2023-03-02T19:45:16.228Z,19.27
2023-03-02T19:47:43.011Z,18.23
2023-03-02T19:50:10.100Z,18.30
2023-03-02T19:52:37.381Z,18.70
2023-03-02T19:55:05.478Z,18.63
2023-03-02T19:57:32.013Z,19.20
2023-03-02T19:59:58.365Z,18.20
2023-03-02T20:02:24.833Z,19.67
2023-03-02T20:04:52.175Z,18.23
2023-03-02T20:07:19.363Z,17.40
2023-03-02T20:09:46.222Z,18.02
2023-03-02T20:12:12.921Z,16.58
2023-03-02T20:14:40.554Z,15.65
2023-03-02T20:17:06.940Z,15.48
2023-03-02T20:19:33.289Z,15.73
2023-03-02T20:21:59.607Z,16.85
2023-03-02T20:24:26.036Z,16.33
2023-03-02T20:26:52.519Z,17.60
2023-03-02T20:29:19.492Z,17.27
2023-03-02T20:31:46.175Z,16.65
2023-03-02T20:34:15.812Z,18.83
2023-03-02T20:36:43.460Z,18.65
2023-03-02T20:39:16.380Z,17.98
2023-03-02T20:44:12.259Z,16.77
2023-03-02T20:46:44.954Z,16.95
2023-03-02T20:49:15.269Z,16.60
2023-03-02T20:54:51.634Z,16.70
2023-03-02T20:57:20.261Z,17.45
2023-03-02T20:59:47.835Z,17.80
2023-03-02T21:02:15.570Z,18.15
2023-03-02T21:04:42.759Z,19.08
2023-03-02T21:07:10.249Z,17.25
2023-03-02T21:09:37.574Z,18.08
2023-03-02T21:12:04.711Z,18.60
2023-03-02T21:14:33.198Z,20.55
2023-03-02T21:17:01.432Z,19.85
2023-03-02T21:19:30.949Z,20.45
2023-03-02T21:21:58.075Z,20.55
2023-03-02T21:24:25.033Z,20.95
2023-03-02T21:26:53.850Z,24.38
2023-03-02T21:29:23.237Z,25.65
2023-03-02T21:31:50.045Z,25.40
2023-03-02T21:34:18.797Z,26.58
2023-03-02T21:36:46.182Z,27.92
2023-03-02T21:39:13.628Z,28.98
2023-03-02T21:41:40.352Z,29.80
2023-03-02T21:44:07.355Z,29.33
2023-03-02T21:46:36.209Z,28.85
2023-03-02T21:49:03.537Z,30.35
2023-03-02T21:51:30.244Z,25.88
2023-03-02T21:53:56.732Z,24.88
2023-03-02T21:56:24.908Z,24.92
2023-03-02T21:58:53.295Z,26.15
2023-03-02T22:01:20.834Z,23.65
2023-03-02T22:03:47.384Z,23.20
2023-03-02T22:06:22.296Z,25.20
2023-03-02T22:08:49.252Z,26.65
2023-03-02T22:11:37.320Z,25.60
2023-03-02T22:14:13.043Z,25.75
2023-03-02T22:16:44.233Z,27.55
2023-03-02T22:19:23.354Z,24.83
2023-03-02T22:21:50.424Z,25.45
2023-03-02T22:24:26.859Z,25.77
2023-03-02T22:26:59.239Z,27.83
2023-03-02T22:29:25.697Z,26.98
2023-03-02T22:31:54.797Z,26.08
2023-03-02T22:34:27.359Z,25.25
2023-03-02T22:36:59.948Z,26.25
2023-03-02T22:39:32.839Z,26.42
2023-03-02T22:44:34.301Z,23.23
2023-03-02T22:47:01.711Z,24.77
2023-03-02T22:49:29.910Z,24.85
2023-03-02T22:52:01.624Z,27.23
2023-03-02T22:54:37.223Z,26.10
2023-03-02T22:57:03.986Z,24.80
2023-03-02T22:59:37.180Z,24.83
2023-03-02T23:02:15.263Z,26.48
2023-03-02T23:04:42.044Z,25.08
2023-03-02T23:07:20.168Z,26.00
2023-03-02T23:09:47.147Z,24.70
2023-03-02T23:12:23.042Z,25.67
2023-03-02T23:14:55.177Z,24.88
2023-03-02T23:17:30.606Z,24.48
2023-03-02T23:19:57.668Z,24.17
2023-03-02T23:22:28.376Z,25.42
2023-03-02T23:24:55.879Z,25.73
2023-03-02T23:27:24.312Z,24.85
2023-03-02T23:29:52.244Z,24.58
2023-03-02T23:32:19.601Z,24.38
2023-03-02T23:34:46.530Z,25.17
2023-03-02T23:37:13.094Z,24.65
2023-03-02T23:39:39.626Z,24.45
2023-03-02T23:42:06.244Z,24.63
2023-03-02T23:44:32.708Z,22.85
2023-03-02T23:46:59.518Z,25.50
2023-03-02T23:49:26.065Z,24.45
2023-03-02T23:51:52.517Z,24.20
2023-03-02T23:54:18.946Z,25.38
2023-03-02T23:56:45.457Z,24.08
2023-03-02T23:59:11.798Z,24.77
